Time;durP1;ratioP1;P1;durP2;ratioP2;P2;SDS_P1;SDS_P2;PMS_P1;PMS_P2;Temp;Humidity;BMP_temperature;BMP_pressure;BME280_temperature;BME280_humidity;BME280_pressure;Samples;Min_cycle;Max_cycle;Signal;HPM_P1;HPM_P2
2023/12/29 00:01:55;;;;;;;8.77;2.05;;;;;;;-143.54;100.00;59916.91;5079626;28;20036;-80
2023/12/29 00:04:21;;;;;;;9.65;2.08;;;;;;;-143.54;100.00;59916.91;5077089;28;20027;-79
2023/12/29 00:06:46;;;;;;;9.30;2.00;;;;;;;-143.54;100.00;59916.91;5076524;28;20029;-79
2023/12/29 00:09:12;;;;;;;14.48;2.63;;;;;;;-143.54;100.00;59916.91;5085879;28;20054;-79
2023/12/29 00:11:38;;;;;;;7.22;2.42;;;;;;;-143.54;100.00;59916.91;5085482;28;20055;-79
2023/12/29 00:14:03;;;;;;;9.90;2.60;;;;;;;-143.54;100.00;59916.91;5075007;28;20036;-79
2023/12/29 00:16:28;;;;;;;8.15;2.38;;;;;;;-143.54;100.00;59916.91;5083754;28;20085;-79
2023/12/29 00:18:53;;;;;;;7.82;2.30;;;;;;;-143.54;100.00;59916.91;5075368;28;20036;-80
2023/12/29 00:21:19;;;;;;;9.35;2.38;;;;;;;-143.54;100.00;59916.91;5081304;28;20035;-79
2023/12/29 00:23:44;;;;;;;9.57;2.35;;;;;;;-143.54;100.00;59916.91;5077589;28;20036;-79
2023/12/29 00:26:10;;;;;;;10.15;2.40;;;;;;;-143.54;100.00;59916.91;5079779;28;20404;-79
2023/12/29 00:28:40;;;;;;;7.15;2.08;;;;;;;-143.54;100.00;59916.91;5078391;28;20033;-80
2023/12/29 00:31:05;;;;;;;11.43;2.67;;;;;;;-143.54;100.00;59916.91;5077896;28;20031;-79
2023/12/29 00:33:31;;;;;;;10.02;2.53;;;;;;;-143.54;100.00;59916.91;5079765;28;20029;-79
2023/12/29 00:35:57;;;;;;;8.30;2.30;;;;;;;-143.54;100.00;59916.91;5076462;28;20170;-79
2023/12/29 00:38:22;;;;;;;8.82;1.80;;;;;;;-143.54;100.00;59916.91;5080148;28;20520;-79
2023/12/29 00:40:48;;;;;;;8.63;2.30;;;;;;;-143.54;100.00;59916.91;5076938;28;20107;-79
2023/12/29 00:43:13;;;;;;;7.03;2.25;;;;;;;-143.54;100.00;59916.91;5079546;28;20028;-79
2023/12/29 00:45:39;;;;;;;11.95;2.30;;;;;;;-143.54;100.00;59916.91;5076542;28;20021;-79
2023/12/29 00:48:04;;;;;;;8.80;2.80;;;;;;;-143.54;100.00;59916.91;5079901;28;20055;-79
2023/12/29 00:50:30;;;;;;;7.15;2.22;;;;;;;-143.54;100.00;59916.91;5075305;28;20476;-79
2023/12/29 00:52:55;;;;;;;9.32;2.17;;;;;;;-143.54;100.00;59916.91;5079478;28;20036;-79
2023/12/29 00:55:20;;;;;;;10.15;2.35;;;;;;;-143.54;100.00;59916.91;5075131;28;20444;-79
2023/12/29 00:57:46;;;;;;;12.95;2.40;;;;;;;-143.54;100.00;59916.91;5079231;28;20420;-79
2023/12/29 01:00:12;;;;;;;11.98;2.88;;;;;;;-143.54;100.00;59916.91;5075523;28;20016;-79
2023/12/29 01:02:38;;;;;;;8.18;2.25;;;;;;;-143.54;100.00;59916.91;5077498;28;20024;-79
2023/12/29 01:05:05;;;;;;;7.50;2.15;;;;;;;-143.54;100.00;59916.91;5080019;28;20472;-79
2023/12/29 01:07:30;;;;;;;8.63;2.30;;;;;;;-143.54;100.00;59916.91;5075467;28;20036;-79
2023/12/29 01:09:56;;;;;;;13.25;2.45;;;;;;;-143.54;100.00;59916.91;5076436;28;20023;-79
2023/12/29 01:12:21;;;;;;;13.13;2.45;;;;;;;-143.54;100.00;59916.91;5086890;28;20059;-79
2023/12/29 01:14:46;;;;;;;10.60;2.40;;;;;;;-143.54;100.00;59916.91;5076092;28;20024;-79
2023/12/29 01:17:12;;;;;;;11.15;2.67;;;;;;;-143.54;100.00;59916.91;5079130;28;20043;-79
2023/12/29 01:19:37;;;;;;;13.00;2.47;;;;;;;-143.54;100.00;59916.91;5074894;28;20033;-79
2023/12/29 01:22:02;;;;;;;9.55;2.58;;;;;;;-143.54;100.00;59916.91;5080292;28;20036;-79
2023/12/29 01:24:28;;;;;;;8.07;2.50;;;;;;;-143.54;100.00;59916.91;5078486;28;20029;-79
2023/12/29 01:26:53;;;;;;;11.13;3.42;;;;;;;-143.54;100.00;59916.91;5077609;28;20059;-79
2023/12/29 01:29:18;;;;;;;13.77;3.47;;;;;;;-143.54;100.00;59916.91;5080723;28;20487;-80
2023/12/29 01:31:43;;;;;;;10.40;2.70;;;;;;;-143.54;100.00;59916.91;5076506;28;20032;-79
2023/12/29 01:34:09;;;;;;;11.65;3.05;;;;;;;-143.54;100.00;59916.91;5081734;28;20020;-79
2023/12/29 01:36:34;;;;;;;15.38;2.75;;;;;;;-143.54;100.00;59916.91;5076628;28;20029;-80
2023/12/29 01:39:00;;;;;;;13.80;2.67;;;;;;;-143.54;100.00;59916.91;5079899;28;20056;-80
2023/12/29 01:41:25;;;;;;;12.45;2.78;;;;;;;-143.54;100.00;59916.91;5076048;28;20032;-80
2023/12/29 01:43:56;;;;;;;12.93;3.15;;;;;;;-143.54;100.00;59916.91;5078845;28;20047;-80
2023/12/29 01:46:24;;;;;;;11.32;2.60;;;;;;;-143.54;100.00;59916.91;5074372;28;20048;-79
2023/12/29 01:48:49;;;;;;;14.70;2.90;;;;;;;-143.54;100.00;59916.91;5079102;28;20037;-79
2023/12/29 01:51:16;;;;;;;12.05;3.22;;;;;;;-143.54;100.00;59916.91;5075798;28;20032;-79
2023/12/29 01:53:41;;;;;;;12.20;3.00;;;;;;;-143.54;100.00;59916.91;5077655;28;20025;-79
2023/12/29 01:56:08;;;;;;;17.08;2.88;;;;;;;-143.54;100.00;59916.91;5075668;28;20047;-79
2023/12/29 01:58:33;;;;;;;13.90;3.30;;;;;;;-143.54;100.00;59916.91;5077985;28;20484;-79
2023/12/29 02:01:01;;;;;;;13.35;3.00;;;;;;;-143.54;100.00;59916.91;5073162;28;20044;-79
2023/12/29 02:03:26;;;;;;;12.40;2.85;;;;;;;-143.54;100.00;59916.91;5080149;28;20031;-79
2023/12/29 02:05:54;;;;;;;10.50;3.63;;;;;;;-143.54;100.00;59916.91;5071692;28;20388;-79
2023/12/29 02:08:22;;;;;;;15.43;3.00;;;;;;;-143.54;100.00;59916.91;5080433;28;20035;-79
2023/12/29 02:10:48;;;;;;;12.43;2.97;;;;;;;-143.54;100.00;59916.91;5072228;28;20032;-79
2023/12/29 02:13:13;;;;;;;14.32;2.53;;;;;;;-143.54;100.00;59916.91;5076837;28;20020;-79
2023/12/29 02:15:39;;;;;;;16.05;2.88;;;;;;;-143.54;100.00;59916.91;5081213;28;20027;-79
2023/12/29 02:18:07;;;;;;;11.50;2.65;;;;;;;-143.54;100.00;59916.91;5074136;28;20469;-79
2023/12/29 02:20:33;;;;;;;13.52;2.60;;;;;;;-143.54;100.00;59916.91;5081678;28;20114;-79
2023/12/29 02:22:58;;;;;;;11.63;2.70;;;;;;;-143.54;100.00;59916.91;5073994;28;20543;-79
2023/12/29 02:25:24;;;;;;;13.98;3.08;;;;;;;-143.54;100.00;59916.91;5076175;28;20480;-79
2023/12/29 02:27:54;;;;;;;14.45;3.03;;;;;;;-143.54;100.00;59916.91;5074770;28;20068;-79
2023/12/29 02:30:45;;;;;;;13.50;2.90;;;;;;;-143.54;100.00;59916.91;5079253;28;20471;-79
2023/12/29 02:33:19;;;;;;;15.57;2.90;;;;;;;-143.54;100.00;59916.91;5066331;28;20120;-79
2023/12/29 02:35:46;;;;;;;11.60;2.80;;;;;;;-143.54;100.00;59916.91;5073362;28;20020;-79
2023/12/29 02:38:12;;;;;;;9.07;2.60;;;;;;;-143.54;100.00;59916.91;5073732;28;20036;-79
2023/12/29 02:40:37;;;;;;;12.48;2.72;;;;;;;-143.54;100.00;59916.91;5079734;28;20032;-79
2023/12/29 02:43:03;;;;;;;9.75;2.28;;;;;;;-143.54;100.00;59916.91;5074226;28;20028;-79
2023/12/29 02:45:28;;;;;;;15.18;2.55;;;;;;;-143.54;100.00;59916.91;5077348;28;20029;-79
2023/12/29 02:47:54;;;;;;;7.93;2.40;;;;;;;-143.54;100.00;59916.91;5076334;28;20115;-79
2023/12/29 02:50:19;;;;;;;12.05;2.65;;;;;;;-143.54;100.00;59916.91;5075286;28;20028;-79
2023/12/29 02:52:44;;;;;;;6.50;2.20;;;;;;;-143.54;100.00;59916.91;5066031;28;20032;-79
2023/12/29 02:55:10;;;;;;;11.98;2.65;;;;;;;-143.54;100.00;59916.91;5074535;28;20086;-79
2023/12/29 02:57:35;;;;;;;14.25;2.83;;;;;;;-143.54;100.00;59916.91;5078885;28;20021;-79
2023/12/29 03:00:00;;;;;;;10.27;3.00;;;;;;;-143.54;100.00;59916.91;5078493;28;20078;-79
2023/12/29 03:02:26;;;;;;;7.75;2.30;;;;;;;-143.54;100.00;59916.91;5080779;28;20033;-79
2023/12/29 03:04:51;;;;;;;9.95;2.45;;;;;;;-143.54;100.00;59916.91;5078269;28;20028;-79
2023/12/29 03:07:16;;;;;;;15.35;2.55;;;;;;;-143.54;100.00;59916.91;5081324;28;20024;-79
2023/12/29 03:09:42;;;;;;;11.00;2.53;;;;;;;-143.54;100.00;59916.91;5077076;28;20482;-79
2023/12/29 03:12:07;;;;;;;15.15;2.88;;;;;;;-143.54;100.00;59916.91;5080626;28;20032;-79
2023/12/29 03:14:32;;;;;;;7.78;2.40;;;;;;;-143.54;100.00;59916.91;5079439;28;20029;-79
2023/12/29 03:16:58;;;;;;;12.23;2.40;;;;;;;-143.54;100.00;59916.91;5083066;28;20490;-79
2023/12/29 03:19:24;;;;;;;13.55;2.20;;;;;;;-143.54;100.00;59916.91;5078966;28;20028;-79
2023/12/29 03:21:50;;;;;;;14.32;2.28;;;;;;;-143.54;100.00;59916.91;5083477;28;20024;-79
2023/12/29 03:24:15;;;;;;;10.98;2.53;;;;;;;-143.54;100.00;59916.91;5077277;28;20029;-79
2023/12/29 03:26:40;;;;;;;13.90;3.00;;;;;;;-143.54;100.00;59916.91;5082600;28;20426;-79
2023/12/29 03:29:06;;;;;;;12.48;2.80;;;;;;;-143.54;100.00;59916.91;5079242;28;20479;-79
2023/12/29 03:31:31;;;;;;;10.40;2.67;;;;;;;-143.54;100.00;59916.91;5080791;28;20029;-79
2023/12/29 03:33:57;;;;;;;16.85;3.15;;;;;;;-143.54;100.00;59916.91;5079601;28;20027;-79
2023/12/29 03:36:22;;;;;;;9.40;2.63;;;;;;;-143.54;100.00;59916.91;5081222;28;20502;-79
2023/12/29 03:38:47;;;;;;;11.75;2.85;;;;;;;-143.54;100.00;59916.91;5078050;28;20085;-79
2023/12/29 03:41:12;;;;;;;10.50;2.97;;;;;;;-143.54;100.00;59916.91;5081833;28;20506;-79
2023/12/29 03:43:38;;;;;;;11.93;2.30;;;;;;;-143.54;100.00;59916.91;5076111;28;20119;-79
2023/12/29 03:46:03;;;;;;;10.90;2.97;;;;;;;-143.54;100.00;59916.91;5083039;28;20111;-79
2023/12/29 03:48:28;;;;;;;10.65;3.13;;;;;;;-143.54;100.00;59916.91;5076153;28;20468;-79
2023/12/29 03:50:54;;;;;;;14.40;3.08;;;;;;;-143.54;100.00;59916.91;5077258;28;20039;-79
2023/12/29 03:53:19;;;;;;;8.80;2.70;;;;;;;-143.54;100.00;59916.91;5074586;28;20052;-79
2023/12/29 03:55:44;;;;;;;13.98;2.83;;;;;;;-143.54;100.00;59916.91;5077034;28;20537;-79
2023/12/29 03:58:10;;;;;;;11.98;2.85;;;;;;;-143.54;100.00;59916.91;5074314;28;20043;-79
2023/12/29 04:00:36;;;;;;;9.27;2.67;;;;;;;-143.54;100.00;59916.91;5075230;28;20040;-79
2023/12/29 04:03:01;;;;;;;11.73;2.60;;;;;;;-143.54;100.00;59916.91;5080684;28;20025;-79
2023/12/29 04:05:26;;;;;;;10.00;3.45;;;;;;;-143.54;100.00;59916.91;5074009;28;20514;-79
2023/12/29 04:07:52;;;;;;;13.27;2.97;;;;;;;-143.54;100.00;59916.91;5082323;28;20103;-79
2023/12/29 04:10:17;;;;;;;9.52;2.30;;;;;;;-143.54;100.00;59916.91;5076486;28;20056;-79
2023/12/29 04:12:42;;;;;;;9.57;2.83;;;;;;;-143.54;100.00;59916.91;5084990;28;20028;-79
2023/12/29 04:15:08;;;;;;;11.43;2.55;;;;;;;-143.54;100.00;59916.91;5081020;28;20028;-79
2023/12/29 04:17:33;;;;;;;9.88;2.50;;;;;;;-143.54;100.00;59916.91;5080471;28;20032;-79
2023/12/29 04:19:59;;;;;;;10.82;2.63;;;;;;;-143.54;100.00;59916.91;5077426;28;20029;-79
2023/12/29 04:22:25;;;;;;;8.38;2.72;;;;;;;-143.54;100.00;59916.91;5084376;28;20024;-79
2023/12/29 04:24:50;;;;;;;8.18;2.53;;;;;;;-143.54;100.00;59916.91;5075949;28;20468;-79
2023/12/29 04:27:16;;;;;;;6.78;2.13;;;;;;;-143.54;100.00;59916.91;5083897;28;20082;-79
2023/12/29 04:29:43;;;;;;;11.18;2.53;;;;;;;-143.54;100.00;59916.91;5076542;28;20414;-79
2023/12/29 04:32:08;;;;;;;18.77;3.15;;;;;;;-143.54;100.00;59916.91;5082761;28;20035;-79
2023/12/29 04:34:34;;;;;;;14.30;2.67;;;;;;;-143.54;100.00;59916.91;5077690;28;20103;-79
2023/12/29 04:36:59;;;;;;;5.82;2.45;;;;;;;-143.54;100.00;59916.91;5080564;28;20518;-79
2023/12/29 04:39:24;;;;;;;16.23;3.30;;;;;;;-143.54;100.00;59916.91;5080454;28;20033;-79
2023/12/29 04:41:50;;;;;;;10.70;2.67;;;;;;;-143.54;100.00;59916.91;5077232;28;20048;-79
2023/12/29 04:44:15;;;;;;;8.23;2.40;;;;;;;-143.54;100.00;59916.91;5082426;28;20043;-79
2023/12/29 04:46:40;;;;;;;13.50;2.65;;;;;;;-143.54;100.00;59916.91;5077480;28;20032;-79
2023/12/29 04:49:06;;;;;;;9.43;2.83;;;;;;;-143.54;100.00;59916.91;5080965;28;20098;-79
2023/12/29 04:51:31;;;;;;;13.23;3.20;;;;;;;-143.54;100.00;59916.91;5077148;28;20170;-79
2023/12/29 04:53:56;;;;;;;14.02;2.70;;;;;;;-143.54;100.00;59916.91;5081726;28;20032;-79
2023/12/29 04:56:21;;;;;;;14.70;2.75;;;;;;;-143.54;100.00;59916.91;5076498;28;20396;-79
2023/12/29 04:58:47;;;;;;;8.65;2.63;;;;;;;-143.54;100.00;59916.91;5080246;28;20376;-79
2023/12/29 05:01:12;;;;;;;11.77;2.78;;;;;;;-143.54;100.00;59916.91;5077886;28;20407;-79
2023/12/29 05:03:37;;;;;;;8.93;2.80;;;;;;;-143.54;100.00;59916.91;5079111;28;20119;-79
2023/12/29 05:06:03;;;;;;;12.10;2.58;;;;;;;-143.54;100.00;59916.91;5077312;28;20471;-79
2023/12/29 05:08:28;;;;;;;11.52;2.35;;;;;;;-143.54;100.00;59916.91;5079134;28;20093;-79
2023/12/29 05:10:53;;;;;;;13.73;2.55;;;;;;;-143.54;100.00;59916.91;5075031;28;20016;-79
2023/12/29 05:13:19;;;;;;;15.00;3.30;;;;;;;-143.54;100.00;59916.91;5085331;28;20180;-79
2023/12/29 05:15:44;;;;;;;12.40;2.88;;;;;;;-143.54;100.00;59916.91;5077424;28;20466;-79
2023/12/29 05:18:09;;;;;;;15.40;3.05;;;;;;;-143.54;100.00;59916.91;5080753;28;20025;-79
2023/12/29 05:20:35;;;;;;;11.20;2.92;;;;;;;-143.54;100.00;59916.91;5077760;28;20132;-79
2023/12/29 05:23:00;;;;;;;10.38;3.00;;;;;;;-143.54;100.00;59916.91;5079945;28;20036;-79
2023/12/29 05:25:26;;;;;;;7.95;2.85;;;;;;;-143.54;100.00;59916.91;5079408;28;20036;-79
2023/12/29 05:27:51;;;;;;;10.02;2.38;;;;;;;-143.54;100.00;59916.91;5080497;28;20410;-79
2023/12/29 05:30:16;;;;;;;13.27;2.55;;;;;;;-143.54;100.00;59916.91;5076614;28;20034;-79
2023/12/29 05:32:42;;;;;;;9.43;2.80;;;;;;;-143.54;100.00;59916.91;5081816;28;20031;-79
2023/12/29 05:35:07;;;;;;;8.82;2.20;;;;;;;-143.54;100.00;59916.91;5075038;28;20028;-78
2023/12/29 05:37:32;;;;;;;11.25;3.05;;;;;;;-143.54;100.00;59916.91;5082293;28;20024;-79
2023/12/29 05:39:58;;;;;;;12.52;2.47;;;;;;;-143.54;100.00;59916.91;5074429;28;20032;-79
2023/12/29 05:42:23;;;;;;;10.05;3.58;;;;;;;-143.54;100.00;59916.91;5081594;28;20073;-79
2023/12/29 05:44:48;;;;;;;9.60;3.10;;;;;;;-143.54;100.00;59916.91;5075977;28;20064;-79
2023/12/29 05:47:14;;;;;;;9.68;2.70;;;;;;;-143.54;100.00;59916.91;5079347;28;20385;-79
2023/12/29 05:49:39;;;;;;;9.32;2.35;;;;;;;-143.54;100.00;59916.91;5078233;28;20031;-79
2023/12/29 05:52:06;;;;;;;7.70;2.55;;;;;;;-143.54;100.00;59916.91;5075869;28;20025;-79
2023/12/29 05:54:33;;;;;;;7.25;1.60;;;;;;;-143.54;100.00;59916.91;5073329;28;20496;-79
2023/12/29 05:56:58;;;;;;;10.82;2.55;;;;;;;-143.54;100.00;59916.91;5076313;28;20121;-79
2023/12/29 05:59:24;;;;;;;11.75;2.35;;;;;;;-143.54;100.00;59916.91;5079087;28;20067;-79
2023/12/29 06:01:49;;;;;;;11.85;2.75;;;;;;;-143.54;100.00;59916.91;5074800;28;20067;-79
2023/12/29 06:04:14;;;;;;;11.57;2.50;;;;;;;-143.54;100.00;59916.91;5080009;28;20468;-79
2023/12/29 06:06:42;;;;;;;8.00;2.05;;;;;;;-143.54;100.00;59916.91;5075220;28;20060;-79
2023/12/29 06:09:10;;;;;;;9.98;2.47;;;;;;;-143.54;100.00;59916.91;5079274;28;20538;-79
2023/12/29 06:11:35;;;;;;;7.05;2.55;;;;;;;-143.54;100.00;59916.91;5070767;28;20032;-79
2023/12/29 06:14:01;;;;;;;8.88;2.20;;;;;;;-143.54;100.00;59916.91;5078880;28;20043;-79
2023/12/29 06:16:26;;;;;;;7.80;2.22;;;;;;;-143.54;100.00;59916.91;5078186;28;20032;-79
2023/12/29 06:18:53;;;;;;;9.13;2.22;;;;;;;-143.54;100.00;59916.91;5079814;28;20104;-79
2023/12/29 06:21:19;;;;;;;8.90;2.35;;;;;;;-143.54;100.00;59916.91;5076959;28;20029;-79
2023/12/29 06:23:44;;;;;;;8.07;2.35;;;;;;;-143.54;100.00;59916.91;5081943;28;20028;-79
2023/12/29 06:26:17;;;;;;;14.75;2.97;;;;;;;-143.54;100.00;59916.91;5075919;28;20045;-79
2023/12/29 06:28:43;;;;;;;8.50;1.92;;;;;;;-143.54;100.00;59916.91;5081609;28;20531;-79
2023/12/29 06:31:08;;;;;;;14.60;2.40;;;;;;;-143.54;100.00;59916.91;5076773;28;20108;-79
2023/12/29 06:33:34;;;;;;;10.48;2.55;;;;;;;-143.54;100.00;59916.91;5084079;28;20388;-79
2023/12/29 06:35:59;;;;;;;8.25;2.30;;;;;;;-143.54;100.00;59916.91;5080857;28;20486;-79
2023/12/29 06:38:24;;;;;;;11.88;2.38;;;;;;;-143.54;100.00;59916.91;5083285;28;20430;-79
2023/12/29 06:40:50;;;;;;;8.23;2.50;;;;;;;-143.54;100.00;59916.91;5081175;28;20437;-79
2023/12/29 06:43:16;;;;;;;7.47;2.28;;;;;;;-143.54;100.00;59916.91;5083190;28;20099;-79
2023/12/29 06:45:41;;;;;;;6.78;2.15;;;;;;;-143.54;100.00;59916.91;5080988;28;20030;-79
2023/12/29 06:48:07;;;;;;;10.35;2.67;;;;;;;-143.54;100.00;59916.91;5082243;28;20369;-79
2023/12/29 06:50:32;;;;;;;9.65;2.17;;;;;;;-143.54;100.00;59916.91;5078428;28;20036;-79
2023/12/29 06:52:57;;;;;;;8.52;2.63;;;;;;;-143.54;100.00;59916.91;5084937;28;20024;-79
2023/12/29 06:55:25;;;;;;;8.40;2.85;;;;;;;-143.54;100.00;59916.91;5075654;28;20024;-79
2023/12/29 06:57:50;;;;;;;7.93;2.90;;;;;;;-143.54;100.00;59916.91;5085156;28;20089;-79
2023/12/29 07:00:15;;;;;;;12.25;2.28;;;;;;;-143.54;100.00;59916.91;5077325;28;20127;-79
2023/12/29 07:02:41;;;;;;;9.23;2.30;;;;;;;-143.54;100.00;59916.91;5082292;28;20103;-79
2023/12/29 07:05:07;;;;;;;9.63;2.70;;;;;;;-143.54;100.00;59916.91;5079019;28;20392;-79
2023/12/29 07:07:32;;;;;;;9.25;2.10;;;;;;;-143.54;100.00;59916.91;5080527;28;20032;-79
2023/12/29 07:09:58;;;;;;;11.20;2.70;;;;;;;-143.54;100.00;59916.91;5080161;28;20194;-79
2023/12/29 07:12:23;;;;;;;10.38;2.38;;;;;;;-143.54;100.00;59916.91;5086611;28;20563;-79
2023/12/29 07:14:48;;;;;;;13.52;2.88;;;;;;;-143.54;100.00;59916.91;5079083;28;20036;-79
2023/12/29 07:17:14;;;;;;;9.43;2.63;;;;;;;-143.54;100.00;59916.91;5085414;28;20034;-79
2023/12/29 07:19:39;;;;;;;12.52;2.80;;;;;;;-143.54;100.00;59916.91;5077388;28;20116;-79
2023/12/29 07:22:08;;;;;;;10.93;2.65;;;;;;;-143.54;100.00;59916.91;5085301;28;20031;-79
2023/12/29 07:24:35;;;;;;;11.07;2.35;;;;;;;-143.54;100.00;59916.91;5078542;28;20555;-79
2023/12/29 07:27:00;;;;;;;11.32;2.97;;;;;;;-143.54;100.00;59916.91;5083715;28;20101;-79
2023/12/29 07:29:26;;;;;;;10.70;2.63;;;;;;;-143.54;100.00;59916.91;5079653;28;20814;-79
2023/12/29 07:31:51;;;;;;;12.07;2.85;;;;;;;-143.54;100.00;59916.91;5081216;28;20024;-79
2023/12/29 07:34:16;;;;;;;11.18;2.47;;;;;;;-143.54;100.00;59916.91;5082109;28;20028;-79
2023/12/29 07:36:42;;;;;;;7.68;2.28;;;;;;;-143.54;100.00;59916.91;5078205;28;20086;-79
2023/12/29 07:39:08;;;;;;;6.47;2.17;;;;;;;-143.54;100.00;59916.91;5083936;28;20044;-79
2023/12/29 07:41:34;;;;;;;7.22;2.15;;;;;;;-143.54;100.00;59916.91;5079110;28;20469;-79
2023/12/29 07:43:59;;;;;;;6.97;2.15;;;;;;;-143.54;100.00;59916.91;5081678;28;20509;-79
2023/12/29 07:46:26;;;;;;;8.85;2.00;;;;;;;-143.54;100.00;59916.91;5078998;28;20016;-79
2023/12/29 07:48:52;;;;;;;6.05;1.70;;;;;;;-143.54;100.00;59916.91;5083204;28;20039;-79
2023/12/29 07:51:18;;;;;;;4.72;1.40;;;;;;;-143.54;100.00;59916.91;5077914;28;20016;-79
2023/12/29 07:53:43;;;;;;;9.95;1.75;;;;;;;-143.54;100.00;59916.91;5081569;28;20029;-79
2023/12/29 07:56:10;;;;;;;11.73;2.08;;;;;;;-143.54;100.00;59916.91;5079457;28;20032;-79
2023/12/29 07:58:35;;;;;;;7.88;2.10;;;;;;;-143.54;100.00;59916.91;5080310;28;20029;-79
2023/12/29 08:01:00;;;;;;;6.45;1.70;;;;;;;-143.54;100.00;59916.91;5079524;28;20380;-79
2023/12/29 08:03:26;;;;;;;5.93;1.90;;;;;;;-143.54;100.00;59916.91;5072506;28;20055;-79
2023/12/29 08:05:52;;;;;;;5.93;1.83;;;;;;;-143.54;100.00;59916.91;5076557;28;20016;-79
2023/12/29 08:08:19;;;;;;;4.50;1.25;;;;;;;-143.54;100.00;59916.91;5078914;28;20033;-79
2023/12/29 08:10:44;;;;;;;5.50;1.48;;;;;;;-143.54;100.00;59916.91;5073367;28;20024;-79
2023/12/29 08:13:09;;;;;;;7.80;1.77;;;;;;;-143.54;100.00;59916.91;5077559;28;20108;-79
2023/12/29 08:15:35;;;;;;;4.88;1.65;;;;;;;-143.54;100.00;59916.91;5075964;28;20712;-79
2023/12/29 08:18:01;;;;;;;6.15;1.42;;;;;;;-143.54;100.00;59916.91;5082012;28;20455;-79
2023/12/29 08:20:26;;;;;;;9.43;2.45;;;;;;;-143.54;100.00;59916.91;5075637;28;20077;-79
2023/12/29 08:22:51;;;;;;;4.93;1.45;;;;;;;-143.54;100.00;59916.91;5082196;28;20017;-79
2023/12/29 08:25:17;;;;;;;2.85;1.55;;;;;;;-143.54;100.00;59916.91;5079784;28;20510;-79
2023/12/29 08:27:42;;;;;;;5.35;1.95;;;;;;;-143.54;100.00;59916.91;5081753;28;20024;-79
2023/12/29 08:30:08;;;;;;;3.00;1.30;;;;;;;-143.54;100.00;59916.91;5077250;28;20024;-79
2023/12/29 08:32:33;;;;;;;5.57;1.80;;;;;;;-143.54;100.00;59916.91;5080485;28;20107;-79
2023/12/29 08:34:59;;;;;;;5.75;1.90;;;;;;;-143.54;100.00;59916.91;5075422;28;20526;-79
2023/12/29 08:37:24;;;;;;;3.80;1.20;;;;;;;-143.54;100.00;59916.91;5079542;28;20031;-79
2023/12/29 08:39:49;;;;;;;4.57;1.50;;;;;;;-143.54;100.00;59916.91;5077315;28;20031;-79
2023/12/29 08:42:15;;;;;;;4.25;1.20;;;;;;;-143.54;100.00;59916.91;5081219;28;20051;-79
2023/12/29 08:44:41;;;;;;;3.88;1.70;;;;;;;-143.54;100.00;59916.91;5078618;28;20431;-79
2023/12/29 08:47:08;;;;;;;4.70;1.58;;;;;;;-143.54;100.00;59916.91;5078269;28;20029;-79
2023/12/29 08:49:37;;;;;;;3.90;1.83;;;;;;;-143.54;100.00;59916.91;5079301;28;20123;-79
2023/12/29 08:52:02;;;;;;;4.95;1.45;;;;;;;-143.54;100.00;59916.91;5076810;28;20028;-78
2023/12/29 08:54:28;;;;;;;4.63;1.30;;;;;;;-143.54;100.00;59916.91;5080651;28;20020;-79
2023/12/29 08:56:53;;;;;;;4.22;1.23;;;;;;;-143.54;100.00;59916.91;5076907;28;20020;-78
2023/12/29 08:59:18;;;;;;;5.40;1.65;;;;;;;-143.54;100.00;59916.91;5075660;28;20035;-78
2023/12/29 09:01:44;;;;;;;4.40;1.50;;;;;;;-143.54;100.00;59916.91;5076130;28;20032;-79
2023/12/29 09:04:09;;;;;;;5.18;1.10;;;;;;;-143.54;100.00;59916.91;5074347;28;20491;-79
2023/12/29 09:06:34;;;;;;;3.47;1.25;;;;;;;-143.54;100.00;59916.91;5072585;28;20112;-79
2023/12/29 09:09:00;;;;;;;3.25;1.58;;;;;;;-143.54;100.00;59916.91;5072348;28;20139;-79
2023/12/29 09:11:26;;;;;;;3.85;1.40;;;;;;;-143.54;100.00;59916.91;5075242;28;20520;-79
2023/12/29 09:13:51;;;;;;;3.58;1.30;;;;;;;-143.54;100.00;59916.91;5079256;28;20040;-79
2023/12/29 09:16:17;;;;;;;3.53;1.20;;;;;;;-143.54;100.00;59916.91;5071525;28;20024;-79
2023/12/29 09:18:42;;;;;;;3.22;1.40;;;;;;;-143.54;100.00;59916.91;5080520;28;20376;-79
2023/12/29 09:21:07;;;;;;;3.70;1.48;;;;;;;-143.54;100.00;59916.91;5077584;28;20357;-79
2023/12/29 09:23:33;;;;;;;6.00;1.40;;;;;;;-143.54;100.00;59916.91;5081766;28;20072;-79
2023/12/29 09:25:59;;;;;;;2.85;1.20;;;;;;;-143.54;100.00;59916.91;5077544;28;20428;-79
2023/12/29 09:28:24;;;;;;;6.85;1.77;;;;;;;-143.54;100.00;59916.91;5065728;28;20025;-79
2023/12/29 09:30:49;;;;;;;3.40;1.30;;;;;;;-143.54;100.00;59916.91;5076382;28;20491;-79
2023/12/29 09:33:15;;;;;;;4.07;1.45;;;;;;;-143.54;100.00;59916.91;5080102;28;20032;-79
2023/12/29 09:35:40;;;;;;;4.38;1.20;;;;;;;-143.54;100.00;59916.91;5073151;28;20025;-79
2023/12/29 09:38:05;;;;;;;5.07;1.23;;;;;;;-143.54;100.00;59916.91;5078658;28;20044;-79
2023/12/29 09:40:31;;;;;;;2.78;1.20;;;;;;;-143.54;100.00;59916.91;5077363;28;20024;-79
2023/12/29 09:42:57;;;;;;;3.85;1.30;;;;;;;-143.54;100.00;59916.91;5072536;28;20071;-79
2023/12/29 09:45:26;;;;;;;2.70;1.20;;;;;;;-143.54;100.00;59916.91;5073544;28;20032;-79
2023/12/29 09:47:53;;;;;;;3.78;1.20;;;;;;;-143.54;100.00;59916.91;5077550;28;20086;-79
2023/12/29 09:50:19;;;;;;;3.45;1.40;;;;;;;-143.54;100.00;59916.91;5077696;28;20365;-79
2023/12/29 09:52:49;;;;;;;3.03;1.20;;;;;;;-143.54;100.00;59916.91;5074483;28;20031;-79
2023/12/29 09:55:15;;;;;;;4.07;1.30;;;;;;;-143.54;100.00;59916.91;5073526;28;20520;-79
2023/12/29 09:57:40;;;;;;;5.47;1.40;;;;;;;-143.54;100.00;59916.91;5079719;28;20150;-79
2023/12/29 10:00:11;;;;;;;2.38;1.10;;;;;;;-143.54;100.00;59916.91;5075713;28;20055;-80
2023/12/29 10:02:37;;;;;;;2.88;1.08;;;;;;;-143.54;100.00;59916.91;5079299;28;20107;-79
2023/12/29 10:05:03;;;;;;;2.60;1.08;;;;;;;-143.54;100.00;59916.91;5075712;28;20121;-79
2023/12/29 10:07:34;;;;;;;3.67;1.10;;;;;;;-143.54;100.00;59916.91;5076493;28;20106;-79
2023/12/29 10:10:01;;;;;;;3.97;1.20;;;;;;;-143.54;100.00;59916.91;5081512;28;20032;-80
2023/12/29 10:12:28;;;;;;;3.10;1.00;;;;;;;-143.54;100.00;59916.91;5088991;28;20464;-80
2023/12/29 10:15:20;;;;;;;1.80;1.17;;;;;;;-143.54;100.00;59916.91;5080838;28;20024;-80
2023/12/29 10:18:11;;;;;;;2.53;1.10;;;;;;;-143.54;100.00;59916.91;5079093;28;20024;-80
2023/12/29 10:20:48;;;;;;;1.90;1.15;;;;;;;-143.54;100.00;59916.91;5082418;28;20032;-80
2023/12/29 10:23:22;;;;;;;2.80;1.10;;;;;;;-143.54;100.00;59916.91;5087206;28;20031;-80
2023/12/29 10:25:49;;;;;;;2.55;0.85;;;;;;;-143.54;100.00;59916.91;5079843;28;20048;-80
2023/12/29 10:28:17;;;;;;;4.63;1.00;;;;;;;-143.54;100.00;59916.91;5086617;28;20029;-80
2023/12/29 10:30:42;;;;;;;2.85;1.10;;;;;;;-143.54;100.00;59916.91;5079791;28;20032;-80
2023/12/29 10:33:08;;;;;;;2.33;1.13;;;;;;;-143.54;100.00;59916.91;5085168;28;20032;-80
2023/12/29 10:35:37;;;;;;;2.50;1.40;;;;;;;-143.54;100.00;59916.91;5079549;28;20096;-80
2023/12/29 10:38:10;;;;;;;2.80;1.00;;;;;;;-143.54;100.00;59916.91;5086002;28;20376;-80
2023/12/29 10:40:35;;;;;;;5.82;1.30;;;;;;;-143.54;100.00;59916.91;5078688;28;20112;-80
2023/12/29 10:43:06;;;;;;;2.67;1.50;;;;;;;-143.54;100.00;59916.91;5083503;28;20054;-80
2023/12/29 10:45:31;;;;;;;3.83;1.38;;;;;;;-143.54;100.00;59916.91;5080738;28;20472;-79
2023/12/29 10:48:00;;;;;;;4.13;1.40;;;;;;;-143.54;100.00;59916.91;5086193;28;20041;-80
2023/12/29 10:50:27;;;;;;;5.25;1.40;;;;;;;-143.54;100.00;59916.91;5078188;28;20055;-80
2023/12/29 10:52:52;;;;;;;3.92;1.42;;;;;;;-143.54;100.00;59916.91;5078401;28;20027;-80
2023/12/29 10:55:17;;;;;;;5.75;1.60;;;;;;;-143.54;100.00;59916.91;5067785;28;20392;-81
2023/12/29 10:57:42;;;;;;;3.90;1.52;;;;;;;-143.54;100.00;59916.91;5080258;28;20028;-80
2023/12/29 11:00:08;;;;;;;4.95;1.60;;;;;;;-143.54;100.00;59916.91;5076450;28;20036;-80
2023/12/29 11:02:34;;;;;;;5.65;1.52;;;;;;;-143.54;100.00;59916.91;5084308;28;20034;-80